createdAt,value
2019-05-22T00:01:40.755Z,68.25
2019-05-22T00:04:13.738Z,68.68
2019-05-22T00:06:45.798Z,68.48
2019-05-22T00:09:24.622Z,68.26
2019-05-22T00:11:56.900Z,68.31
2019-05-22T00:14:30.683Z,68.10
2019-05-22T00:17:03.178Z,68.51
2019-05-22T00:19:35.069Z,68.14
2019-05-22T00:22:12.026Z,67.98
2019-05-22T00:24:44.530Z,68.97
2019-05-22T00:27:17.359Z,69.17
2019-05-22T00:29:50.396Z,69.58
2019-05-22T00:32:23.710Z,69.96
2019-05-22T00:34:56.640Z,69.66
2019-05-22T00:37:30.110Z,69.41
2019-05-22T00:40:03.367Z,69.89
2019-05-22T00:42:36.415Z,70.27
2019-05-22T00:45:10.432Z,69.64
2019-05-22T00:47:42.394Z,69.88
2019-05-22T00:50:22.072Z,69.98
2019-05-22T00:52:58.706Z,70.44
2019-05-22T00:55:47.636Z,70.52
2019-05-22T00:58:23.441Z,70.12
2019-05-22T01:00:57.387Z,70.18
2019-05-22T01:03:30.460Z,70.17
2019-05-22T01:06:01.976Z,69.71
2019-05-22T01:08:34.750Z,70.00
2019-05-22T01:11:07.941Z,69.72
2019-05-22T01:13:40.926Z,69.78
2019-05-22T01:16:14.732Z,69.65
2019-05-22T01:18:47.004Z,69.09
2019-05-22T01:21:20.201Z,69.17
2019-05-22T01:23:53.390Z,69.59
2019-05-22T01:26:26.273Z,69.55
2019-05-22T01:28:57.632Z,69.59
2019-05-22T01:31:33.781Z,69.66
2019-05-22T01:34:08.645Z,69.56
2019-05-22T01:36:42.219Z,69.88
2019-05-22T01:39:28.515Z,70.28
2019-05-22T01:42:01.430Z,70.32
2019-05-22T01:44:34.795Z,69.77
2019-05-22T01:47:10.230Z,69.42
2019-05-22T01:49:44.655Z,69.61
2019-05-22T01:52:17.240Z,70.09
2019-05-22T01:54:50.320Z,69.86
2019-05-22T01:57:24.939Z,69.98
2019-05-22T01:59:57.096Z,70.35
2019-05-22T02:02:30.519Z,70.32
2019-05-22T02:05:05.358Z,70.29
2019-05-22T02:07:37.079Z,69.43
2019-05-22T02:10:08.749Z,69.20
2019-05-22T02:12:43.614Z,69.04
2019-05-22T02:15:15.499Z,68.80
2019-05-22T02:17:48.434Z,68.38
2019-05-22T02:20:20.285Z,68.02
2019-05-22T02:22:52.093Z,68.11
2019-05-22T02:25:24.207Z,67.40
2019-05-22T02:27:57.190Z,67.27
2019-05-22T02:30:30.593Z,68.05
2019-05-22T02:33:02.366Z,67.62
2019-05-22T02:35:34.118Z,68.03
2019-05-22T02:38:07.610Z,67.75
2019-05-22T02:40:39.257Z,68.05
2019-05-22T02:43:12.156Z,68.31
2019-05-22T02:45:44.011Z,68.05
2019-05-22T02:48:16.071Z,67.98
2019-05-22T02:50:48.960Z,68.00
2019-05-22T02:53:20.927Z,68.11
2019-05-22T02:55:53.484Z,67.25
2019-05-22T02:58:25.555Z,66.57
2019-05-22T03:01:02.911Z,65.69
2019-05-22T03:03:35.116Z,66.31
2019-05-22T03:06:12.933Z,64.03
2019-05-22T03:09:00.053Z,61.72
2019-05-22T03:11:37.735Z,60.30
2019-05-22T03:14:11.227Z,60.57
2019-05-22T03:16:51.488Z,59.98
2019-05-22T03:19:45.508Z,59.45
2019-05-22T03:22:21.420Z,59.68
2019-05-22T03:24:55.177Z,59.31
2019-05-22T03:27:40.038Z,59.39
2019-05-22T03:30:15.233Z,59.35
2019-05-22T03:32:47.990Z,58.24
2019-05-22T03:35:20.800Z,58.82
2019-05-22T03:37:53.979Z,58.37
2019-05-22T03:40:26.983Z,57.58
2019-05-22T03:43:00.061Z,57.97
2019-05-22T03:45:31.610Z,59.15
2019-05-22T03:48:03.068Z,59.03
2019-05-22T03:50:35.123Z,59.37
2019-05-22T03:53:15.352Z,64.96
2019-05-22T03:55:48.081Z,66.09
2019-05-22T03:58:19.874Z,67.21
2019-05-22T04:00:52.611Z,68.29
2019-05-22T04:03:24.371Z,66.33
2019-05-22T04:05:56.432Z,66.77
2019-05-22T04:08:29.320Z,67.91
2019-05-22T04:11:03.051Z,64.09
2019-05-22T04:13:34.670Z,65.30
2019-05-22T04:16:07.748Z,66.65
2019-05-22T04:18:39.502Z,64.27
2019-05-22T04:21:11.301Z,62.99
2019-05-22T04:23:42.676Z,64.12
2019-05-22T04:26:16.841Z,63.34
2019-05-22T04:28:51.167Z,62.85
2019-05-22T04:31:42.481Z,63.95
2019-05-22T04:34:14.650Z,63.34
2019-05-22T04:36:47.261Z,67.94
2019-05-22T04:39:24.434Z,69.69
2019-05-22T04:41:57.375Z,70.51
2019-05-22T04:44:29.447Z,70.48
2019-05-22T04:47:01.415Z,71.81
2019-05-22T04:49:33.119Z,75.41
2019-05-22T04:52:04.882Z,75.98
2019-05-22T04:54:36.686Z,77.10
2019-05-22T04:57:09.569Z,82.16
2019-05-22T04:59:41.300Z,88.02
2019-05-22T05:02:13.240Z,92.89
2019-05-22T05:04:44.694Z,93.53
2019-05-22T05:07:17.109Z,93.46
2019-05-22T05:09:48.468Z,96.13
2019-05-22T05:12:20.200Z,97.64
2019-05-22T05:14:52.537Z,91.42
2019-05-22T05:17:24.294Z,93.09
2019-05-22T05:19:55.696Z,96.48
2019-05-22T05:22:34.015Z,97.03
2019-05-22T05:25:05.812Z,97.92
2019-05-22T05:27:37.786Z,100.00
2019-05-22T05:30:09.393Z,100.00
2019-05-22T05:32:41.278Z,98.55
2019-05-22T05:35:12.997Z,98.27
2019-05-22T05:37:44.993Z,97.89
2019-05-22T05:40:39.958Z,100.00
2019-05-22T05:43:12.234Z,100.00
2019-05-22T05:45:44.254Z,100.00
2019-05-22T05:48:17.964Z,100.00
2019-05-22T05:51:05.357Z,100.00
2019-05-22T05:53:57.153Z,100.00
2019-05-22T05:56:32.310Z,100.00
2019-05-22T05:59:05.810Z,100.00
2019-05-22T06:01:39.605Z,100.00
2019-05-22T06:04:12.801Z,100.00
2019-05-22T06:06:54.073Z,100.00
2019-05-22T06:09:26.552Z,100.00
2019-05-22T06:11:59.526Z,100.00
2019-05-22T06:14:34.258Z,100.00
2019-05-22T06:17:16.106Z,100.00
2019-05-22T06:19:50.987Z,100.00
2019-05-22T06:22:22.943Z,100.00
2019-05-22T06:24:58.749Z,100.00
2019-05-22T06:27:41.986Z,100.00
2019-05-22T06:30:18.304Z,100.00
2019-05-22T06:33:11.337Z,100.00
2019-05-22T06:35:46.176Z,100.00
2019-05-22T06:38:44.562Z,100.00
2019-05-22T06:41:18.158Z,100.00
2019-05-22T06:44:27.289Z,100.00
2019-05-22T06:46:59.482Z,100.00
2019-05-22T06:49:36.292Z,100.00
2019-05-22T06:52:08.474Z,100.00
2019-05-22T06:54:40.711Z,100.00
2019-05-22T06:57:14.483Z,100.00
2019-05-22T06:59:46.962Z,100.00
2019-05-22T07:02:19.847Z,100.00
2019-05-22T07:04:52.231Z,100.00
2019-05-22T07:07:24.960Z,100.00
2019-05-22T07:09:57.296Z,100.00
2019-05-22T07:12:29.482Z,100.00
2019-05-22T07:15:11.436Z,100.00
2019-05-22T07:17:43.799Z,100.00
2019-05-22T07:20:15.691Z,100.00
2019-05-22T07:25:31.384Z,100.00
2019-05-22T07:28:04.073Z,100.00
2019-05-22T07:30:36.275Z,99.67
2019-05-22T07:33:09.182Z,96.80
2019-05-22T07:35:56.737Z,96.20
2019-05-22T07:38:15.043Z,95.51
2019-05-22T07:40:50.563Z,95.92
2019-05-22T07:43:23.033Z,97.29
2019-05-22T07:45:55.830Z,96.80
2019-05-22T07:48:27.838Z,95.54
2019-05-22T07:51:01.049Z,95.36
2019-05-22T07:53:32.711Z,96.28
2019-05-22T07:56:07.680Z,95.54
2019-05-22T07:58:40.598Z,95.05
2019-05-22T08:01:12.450Z,93.46
2019-05-22T08:03:44.887Z,92.16
2019-05-22T08:06:18.848Z,93.13
2019-05-22T08:08:50.799Z,88.60
2019-05-22T08:11:22.456Z,88.20
2019-05-22T08:13:55.014Z,90.27
2019-05-22T08:16:26.903Z,94.55
2019-05-22T08:18:58.564Z,92.80
2019-05-22T08:21:35.724Z,92.60
2019-05-22T08:24:07.805Z,94.30
2019-05-22T08:26:53.455Z,94.05
2019-05-22T08:29:12.773Z,89.96
2019-05-22T08:31:44.092Z,88.00
2019-05-22T08:34:17.586Z,86.89
2019-05-22T08:36:50.167Z,85.60
2019-05-22T08:39:21.931Z,85.30
2019-05-22T08:41:54.209Z,83.76
2019-05-22T08:44:26.258Z,84.33
2019-05-22T08:46:58.226Z,83.74
2019-05-22T08:49:29.680Z,84.35
2019-05-22T08:52:01.013Z,80.36
2019-05-22T08:54:32.862Z,78.95
2019-05-22T08:57:04.213Z,77.60
2019-05-22T08:59:38.749Z,76.19
2019-05-22T09:02:11.218Z,72.67
2019-05-22T09:04:43.081Z,75.56
2019-05-22T09:07:14.560Z,74.64
2019-05-22T09:09:47.005Z,74.33
2019-05-22T09:12:20.341Z,73.61
2019-05-22T09:15:10.620Z,73.99
2019-05-22T09:17:42.508Z,74.95
2019-05-22T09:20:48.197Z,75.49
2019-05-22T09:23:06.485Z,75.50
2019-05-22T09:25:44.453Z,75.47
2019-05-22T09:28:16.634Z,74.35
2019-05-22T09:30:48.688Z,75.29
2019-05-22T09:33:20.661Z,75.50
2019-05-22T09:35:52.704Z,76.81
2019-05-22T09:38:24.451Z,76.69
2019-05-22T09:40:56.207Z,75.54
2019-05-22T09:43:27.987Z,75.18
2019-05-22T09:45:59.658Z,75.88
2019-05-22T09:48:34.037Z,77.20
2019-05-22T09:51:05.717Z,76.09
2019-05-22T09:53:38.785Z,78.29
2019-05-22T09:56:10.964Z,80.14
2019-05-22T09:58:42.629Z,80.01
2019-05-22T10:01:15.416Z,80.43
2019-05-22T10:03:47.365Z,79.44
2019-05-22T10:06:21.635Z,79.60
2019-05-22T10:08:52.347Z,81.03
2019-05-22T10:11:28.999Z,80.07
2019-05-22T10:14:01.358Z,80.00
2019-05-22T10:16:33.190Z,80.31
2019-05-22T10:19:04.889Z,80.47
2019-05-22T10:21:37.089Z,80.32
2019-05-22T10:24:08.813Z,79.92
2019-05-22T10:26:40.711Z,81.76
2019-05-22T10:29:12.725Z,80.84
2019-05-22T10:31:44.516Z,82.80
2019-05-22T10:34:16.349Z,84.36
2019-05-22T10:36:48.313Z,87.04
2019-05-22T10:39:24.493Z,87.43
2019-05-22T10:41:54.183Z,88.50
2019-05-22T10:44:26.256Z,89.25
2019-05-22T10:46:58.115Z,91.02
2019-05-22T10:49:30.606Z,92.82
2019-05-22T10:52:02.459Z,92.12
2019-05-22T10:54:34.205Z,93.96
2019-05-22T10:57:06.622Z,94.62
2019-05-22T10:59:39.047Z,98.10
2019-05-22T11:02:11.314Z,97.71
2019-05-22T11:04:50.074Z,99.00
2019-05-22T11:07:23.979Z,98.52
2019-05-22T11:09:56.833Z,100.00
2019-05-22T11:12:29.116Z,100.00
2019-05-22T11:15:00.909Z,100.00
2019-05-22T11:17:32.810Z,100.00
2019-05-22T11:20:10.037Z,100.00
2019-05-22T11:22:42.524Z,100.00
2019-05-22T11:25:14.071Z,100.00
2019-05-22T11:27:46.518Z,100.00
2019-05-22T11:30:19.126Z,100.00
2019-05-22T11:32:50.674Z,100.00
2019-05-22T11:35:22.500Z,100.00
2019-05-22T11:37:55.482Z,100.00
2019-05-22T11:40:27.758Z,100.00
2019-05-22T11:43:01.049Z,100.00
2019-05-22T11:45:52.055Z,100.00
2019-05-22T11:48:23.749Z,100.00
2019-05-22T11:50:55.764Z,100.00
2019-05-22T11:53:27.323Z,100.00
2019-05-22T11:55:59.062Z,100.00
2019-05-22T11:58:31.160Z,100.00
2019-05-22T12:01:06.239Z,100.00
2019-05-22T12:03:38.364Z,100.00
2019-05-22T12:06:10.216Z,100.00
2019-05-22T12:08:43.543Z,100.00
2019-05-22T12:11:16.737Z,100.00
2019-05-22T12:13:50.530Z,100.00
2019-05-22T12:16:23.378Z,100.00
2019-05-22T12:18:58.543Z,100.00
2019-05-22T12:21:35.792Z,100.00
2019-05-22T12:24:26.934Z,100.00
2019-05-22T12:26:49.063Z,100.00
2019-05-22T12:29:21.970Z,100.00
2019-05-22T12:31:53.756Z,100.00
2019-05-22T12:34:25.897Z,100.00
2019-05-22T12:36:58.150Z,100.00
2019-05-22T12:39:33.365Z,100.00
2019-05-22T12:42:06.272Z,100.00
2019-05-22T12:44:43.214Z,100.00
2019-05-22T12:47:15.307Z,100.00
2019-05-22T12:49:49.285Z,100.00
2019-05-22T12:52:20.965Z,100.00
2019-05-22T12:54:53.244Z,100.00
2019-05-22T12:57:25.121Z,100.00
2019-05-22T12:59:56.878Z,100.00
2019-05-22T13:02:29.372Z,100.00
2019-05-22T13:05:01.191Z,98.62
2019-05-22T13:07:32.967Z,100.00
2019-05-22T13:10:06.687Z,99.35
2019-05-22T13:12:38.089Z,97.45
2019-05-22T13:15:11.016Z,96.13
2019-05-22T13:17:42.999Z,96.31
2019-05-22T13:20:16.767Z,95.46
2019-05-22T13:22:48.606Z,92.74
2019-05-22T13:25:22.749Z,95.90
2019-05-22T13:27:55.094Z,96.23
2019-05-22T13:30:28.590Z,94.38
2019-05-22T13:33:00.071Z,94.50
2019-05-22T13:35:32.160Z,93.77
2019-05-22T13:40:46.592Z,96.98
2019-05-22T13:43:20.289Z,96.65
2019-05-22T13:45:54.719Z,96.33
2019-05-22T13:48:26.257Z,95.50
2019-05-22T13:50:59.614Z,95.38
2019-05-22T13:53:32.332Z,94.32
2019-05-22T13:56:09.755Z,93.00
2019-05-22T13:58:41.695Z,90.08
2019-05-22T14:01:13.749Z,91.39
2019-05-22T14:03:46.942Z,92.37
2019-05-22T14:06:18.694Z,90.93
2019-05-22T14:08:50.049Z,88.99
2019-05-22T14:11:26.516Z,85.97
2019-05-22T14:13:57.868Z,84.67
2019-05-22T14:16:29.763Z,86.30
2019-05-22T14:19:01.272Z,81.82
2019-05-22T14:21:33.512Z,82.77
2019-05-22T14:24:04.895Z,82.59
2019-05-22T14:26:36.647Z,82.80
2019-05-22T14:29:11.023Z,80.73
2019-05-22T14:31:42.622Z,79.99
2019-05-22T14:34:14.699Z,82.89
2019-05-22T14:36:50.041Z,83.37
2019-05-22T14:39:21.367Z,79.87
2019-05-22T14:41:53.022Z,82.81
2019-05-22T14:44:24.509Z,81.34
2019-05-22T14:47:10.629Z,85.31
2019-05-22T14:49:29.652Z,83.55
2019-05-22T14:52:05.387Z,81.99
2019-05-22T14:54:36.729Z,82.29
2019-05-22T14:57:09.211Z,82.98
2019-05-22T14:59:40.657Z,83.12
2019-05-22T15:02:36.483Z,82.12
2019-05-22T15:05:08.354Z,81.39
2019-05-22T15:07:59.578Z,79.05
2019-05-22T15:10:31.418Z,81.80
2019-05-22T15:13:04.151Z,81.12
2019-05-22T15:15:40.288Z,78.37
2019-05-22T15:18:10.702Z,79.08
2019-05-22T15:21:00.215Z,80.49
2019-05-22T15:23:34.240Z,81.00
2019-05-22T15:26:05.713Z,78.05
2019-05-22T15:28:37.568Z,79.81
2019-05-22T15:31:08.925Z,80.97
2019-05-22T15:33:40.913Z,81.77
2019-05-22T15:36:13.882Z,78.16
2019-05-22T15:38:46.500Z,76.31
2019-05-22T15:41:19.439Z,77.32
2019-05-22T15:43:53.399Z,73.75
2019-05-22T15:46:24.999Z,75.18
2019-05-22T15:48:56.551Z,76.19
2019-05-22T15:54:13.144Z,76.07
2019-05-22T15:56:49.362Z,74.93
2019-05-22T15:59:20.806Z,73.67
2019-05-22T16:01:52.930Z,76.35
2019-05-22T16:04:27.698Z,75.43
2019-05-22T16:06:59.738Z,76.13
2019-05-22T16:09:32.216Z,76.45
2019-05-22T16:12:04.492Z,77.54
2019-05-22T16:14:37.701Z,75.77
2019-05-22T16:17:09.138Z,76.69
2019-05-22T16:19:41.358Z,77.04
2019-05-22T16:22:13.362Z,77.89
2019-05-22T16:24:45.762Z,78.08
2019-05-22T16:27:17.427Z,78.28
2019-05-22T16:30:10.814Z,79.50
2019-05-22T16:32:42.618Z,79.85
2019-05-22T16:35:14.269Z,81.97
2019-05-22T16:37:46.638Z,82.20
2019-05-22T16:40:18.157Z,82.51
2019-05-22T16:43:10.732Z,83.00
2019-05-22T16:45:42.273Z,82.42
2019-05-22T16:48:27.833Z,81.94
2019-05-22T16:50:50.186Z,83.85
2019-05-22T16:53:22.073Z,84.39
2019-05-22T16:55:54.238Z,86.10
2019-05-22T16:58:26.244Z,86.27
2019-05-22T17:00:58.175Z,85.63
2019-05-22T17:03:29.818Z,84.96
2019-05-22T17:06:01.277Z,85.53
2019-05-22T17:08:32.647Z,85.62
2019-05-22T17:11:05.535Z,86.61
2019-05-22T17:13:39.512Z,87.04
2019-05-22T17:16:11.800Z,86.70
2019-05-22T17:19:01.662Z,86.63
2019-05-22T17:22:00.331Z,87.38
2019-05-22T17:24:34.350Z,89.10
2019-05-22T17:27:07.779Z,89.99
2019-05-22T17:29:42.676Z,89.56
2019-05-22T17:32:14.551Z,91.36
2019-05-22T17:34:46.263Z,90.41
2019-05-22T17:37:19.636Z,92.75
2019-05-22T17:39:59.716Z,93.08
2019-05-22T17:42:31.941Z,93.87
2019-05-22T17:45:04.718Z,93.01
2019-05-22T17:47:40.284Z,93.36
2019-05-22T17:50:31.317Z,93.38
2019-05-22T17:53:11.041Z,92.41
2019-05-22T17:55:45.140Z,92.77
2019-05-22T17:58:17.202Z,92.16
2019-05-22T18:03:33.621Z,91.38
2019-05-22T18:06:06.829Z,90.54
2019-05-22T18:08:39.972Z,90.38
2019-05-22T18:11:12.064Z,90.53
2019-05-22T18:14:01.161Z,90.87
2019-05-22T18:16:33.461Z,91.27
2019-05-22T18:19:09.186Z,91.05
2019-05-22T18:21:41.564Z,91.90
2019-05-22T18:24:13.675Z,92.06
2019-05-22T18:26:45.347Z,92.70
2019-05-22T18:29:35.535Z,91.84
2019-05-22T18:32:08.043Z,91.36
2019-05-22T18:34:39.882Z,90.28
2019-05-22T18:37:11.316Z,91.22
2019-05-22T18:39:42.956Z,90.81
2019-05-22T18:42:17.905Z,90.55
2019-05-22T18:44:49.490Z,91.60
2019-05-22T18:47:27.062Z,93.72
2019-05-22T18:50:00.328Z,95.27
2019-05-22T18:52:40.919Z,96.64
2019-05-22T18:55:06.834Z,97.04
2019-05-22T18:57:38.499Z,96.00
2019-05-22T19:00:10.567Z,94.27
2019-05-22T19:02:42.528Z,94.43
2019-05-22T19:05:14.454Z,95.13
2019-05-22T19:07:46.150Z,94.75
2019-05-22T19:10:17.998Z,93.84
2019-05-22T19:12:49.826Z,92.86
2019-05-22T19:15:43.313Z,92.28
2019-05-22T19:18:17.037Z,92.21
2019-05-22T19:20:48.565Z,92.25
2019-05-22T19:23:20.116Z,92.83
2019-05-22T19:25:51.976Z,92.71
2019-05-22T19:28:40.468Z,92.11
2019-05-22T19:30:58.458Z,92.10
2019-05-22T19:33:29.909Z,91.64
2019-05-22T19:36:01.795Z,92.23
2019-05-22T19:38:33.963Z,92.42
2019-05-22T19:41:06.105Z,91.67
2019-05-22T19:43:37.968Z,91.38
2019-05-22T19:46:10.341Z,91.53
2019-05-22T19:48:42.199Z,91.19
2019-05-22T19:51:14.174Z,90.60
2019-05-22T19:54:00.779Z,90.32
2019-05-22T19:56:33.094Z,91.34
2019-05-22T19:59:05.954Z,91.48
2019-05-22T20:01:38.262Z,91.29
2019-05-22T20:04:09.916Z,91.61
2019-05-22T20:06:44.395Z,92.21
2019-05-22T20:09:25.929Z,91.56
2019-05-22T20:11:57.541Z,91.03
2019-05-22T20:14:30.745Z,90.33
2019-05-22T20:17:03.452Z,89.40
2019-05-22T20:19:39.569Z,88.61
2019-05-22T20:22:11.513Z,88.12
2019-05-22T20:24:43.545Z,88.08
2019-05-22T20:27:15.037Z,87.76
2019-05-22T20:29:46.771Z,88.04
2019-05-22T20:32:21.711Z,88.73
2019-05-22T20:34:54.942Z,89.17
2019-05-22T20:37:26.796Z,89.84
2019-05-22T20:39:58.415Z,88.85
2019-05-22T20:42:41.112Z,89.45
2019-05-22T20:45:14.289Z,88.77
2019-05-22T20:47:46.530Z,89.33
2019-05-22T20:50:20.351Z,89.16
2019-05-22T20:52:51.597Z,88.54
2019-05-22T20:55:24.029Z,89.20
2019-05-22T20:57:56.820Z,89.74
2019-05-22T21:00:28.461Z,90.50
2019-05-22T21:03:54.447Z,90.69
2019-05-22T21:06:50.448Z,89.97
2019-05-22T21:09:22.382Z,89.99
2019-05-22T21:11:53.965Z,90.70
2019-05-22T21:14:26.499Z,91.31
2019-05-22T21:17:06.435Z,92.31
2019-05-22T21:19:40.965Z,92.74
2019-05-22T21:22:13.955Z,92.36
2019-05-22T21:24:45.945Z,92.61
2019-05-22T21:27:19.433Z,92.75
2019-05-22T21:29:52.311Z,91.36
2019-05-22T21:32:25.077Z,89.96
2019-05-22T21:34:56.976Z,90.54
2019-05-22T21:37:28.791Z,90.11
2019-05-22T21:40:00.857Z,90.87
2019-05-22T21:42:32.931Z,91.94
2019-05-22T21:45:09.703Z,90.04
2019-05-22T21:47:41.959Z,89.89
2019-05-22T21:50:13.312Z,90.67
2019-05-22T21:52:45.080Z,89.78
2019-05-22T21:55:19.586Z,89.43
2019-05-22T21:57:51.243Z,90.17
2019-05-22T22:00:42.906Z,89.50
2019-05-22T22:03:19.397Z,89.86
2019-05-22T22:05:50.796Z,90.15
2019-05-22T22:08:22.441Z,90.38
2019-05-22T22:10:54.314Z,90.57
2019-05-22T22:13:26.575Z,91.22
2019-05-22T22:15:58.944Z,91.17
2019-05-22T22:18:31.119Z,91.38
2019-05-22T22:21:03.195Z,91.52
2019-05-22T22:23:36.473Z,91.39
2019-05-22T22:26:24.225Z,91.05
2019-05-22T22:28:42.054Z,92.10
2019-05-22T22:31:15.335Z,91.96
2019-05-22T22:33:53.230Z,93.15
2019-05-22T22:36:24.683Z,93.98
2019-05-22T22:38:57.161Z,93.52
2019-05-22T22:41:29.332Z,93.86
2019-05-22T22:44:01.382Z,93.87
2019-05-22T22:46:43.602Z,93.92
2019-05-22T22:49:16.778Z,94.85
2019-05-22T22:51:49.255Z,95.58
2019-05-22T22:54:21.797Z,95.82
2019-05-22T22:56:53.770Z,95.62
2019-05-22T22:59:25.144Z,95.86
2019-05-22T23:01:57.541Z,95.96
2019-05-22T23:04:29.882Z,95.72
2019-05-22T23:07:04.808Z,94.74
2019-05-22T23:09:57.530Z,94.83
2019-05-22T23:12:29.020Z,94.14
2019-05-22T23:15:02.102Z,93.51
2019-05-22T23:17:33.824Z,93.39
2019-05-22T23:20:05.725Z,92.88
2019-05-22T23:22:38.070Z,92.26
2019-05-22T23:25:09.475Z,93.14
2019-05-22T23:27:41.916Z,93.41
2019-05-22T23:30:13.983Z,92.98
2019-05-22T23:32:46.045Z,92.68
2019-05-22T23:35:17.396Z,92.80
2019-05-22T23:37:49.455Z,93.03
2019-05-22T23:40:24.327Z,92.86
2019-05-22T23:42:55.737Z,93.70
2019-05-22T23:45:27.598Z,92.35
2019-05-22T23:48:11.512Z,91.55
2019-05-22T23:50:43.400Z,92.32
2019-05-22T23:53:16.476Z,92.66
2019-05-22T23:55:49.064Z,93.38
2019-05-22T23:58:20.458Z,93.16
